sensor_id;sensor_type;location;lat;lon;timestamp;pressure;altitude;pressure_sealevel;temperature;humidity
61026;BME280;46911;32.650;-16.902;2023-05-15T00:00:12;102287.28;;;16.87;62.13
61026;BME280;46911;32.650;-16.902;2023-05-15T00:02:15;102292.16;;;16.82;62.24
61026;BME280;46911;32.650;-16.902;2023-05-15T00:04:16;102292.81;;;16.73;62.53
61026;BME280;46911;32.650;-16.902;2023-05-15T00:06:23;102308.34;;;16.82;62.69
61026;BME280;46911;32.650;-16.902;2023-05-15T00:08:26;102309.41;;;16.80;62.71
61026;BME280;46911;32.650;-16.902;2023-05-15T00:10:26;102313.06;;;16.79;62.98
61026;BME280;46911;32.650;-16.902;2023-05-15T00:12:35;102283.94;;;16.71;62.97
61026;BME280;46911;32.650;-16.902;2023-05-15T00:14:36;102299.81;;;16.76;62.99
61026;BME280;46911;32.650;-16.902;2023-05-15T00:16:37;102305.19;;;16.76;62.95
61026;BME280;46911;32.650;-16.902;2023-05-15T00:18:40;102303.38;;;16.76;62.74
61026;BME280;46911;32.650;-16.902;2023-05-15T00:20:41;102283.06;;;16.57;62.86
61026;BME280;46911;32.650;-16.902;2023-05-15T00:22:47;102298.72;;;16.65;62.75
61026;BME280;46911;32.650;-16.902;2023-05-15T00:24:50;102289.75;;;16.65;63.08
61026;BME280;46911;32.650;-16.902;2023-05-15T00:26:54;102271.00;;;16.50;63.18
61026;BME280;46911;32.650;-16.902;2023-05-15T00:28:55;102292.78;;;16.60;63.06
61026;BME280;46911;32.650;-16.902;2023-05-15T00:31:02;102276.38;;;16.63;63.02
61026;BME280;46911;32.650;-16.902;2023-05-15T00:33:03;102297.31;;;16.72;63.31
61026;BME280;46911;32.650;-16.902;2023-05-15T00:35:13;102267.13;;;16.67;63.23
61026;BME280;46911;32.650;-16.902;2023-05-15T00:37:14;102260.13;;;16.65;63.38
61026;BME280;46911;32.650;-16.902;2023-05-15T00:39:15;102268.00;;;16.68;63.57
61026;BME280;46911;32.650;-16.902;2023-05-15T00:41:17;102257.63;;;16.62;63.78
61026;BME280;46911;32.650;-16.902;2023-05-15T00:43:21;102263.69;;;16.65;63.33
61026;BME280;46911;32.650;-16.902;2023-05-15T00:45:23;102274.47;;;16.78;63.34
61026;BME280;46911;32.650;-16.902;2023-05-15T00:47:28;102261.31;;;16.73;63.52
61026;BME280;46911;32.650;-16.902;2023-05-15T00:49:33;102272.53;;;16.80;63.75
61026;BME280;46911;32.650;-16.902;2023-05-15T00:51:39;102245.78;;;16.64;63.91
61026;BME280;46911;32.650;-16.902;2023-05-15T00:53:45;102255.94;;;16.73;64.17
61026;BME280;46911;32.650;-16.902;2023-05-15T00:55:46;102254.31;;;16.71;64.11
61026;BME280;46911;32.650;-16.902;2023-05-15T00:57:54;102238.66;;;16.63;63.88
61026;BME280;46911;32.650;-16.902;2023-05-15T00:59:56;102253.13;;;16.75;63.70
61026;BME280;46911;32.650;-16.902;2023-05-15T01:02:02;102247.31;;;16.68;63.73
61026;BME280;46911;32.650;-16.902;2023-05-15T01:04:03;102253.13;;;16.75;63.70
61026;BME280;46911;32.650;-16.902;2023-05-15T01:06:04;102237.72;;;16.64;63.77
61026;BME280;46911;32.650;-16.902;2023-05-15T01:10:35;102250.09;;;16.67;64.11
61026;BME280;46911;32.650;-16.902;2023-05-15T01:12:42;102252.47;;;16.59;64.43
61026;BME280;46911;32.650;-16.902;2023-05-15T01:14:44;102252.47;;;16.59;64.39
61026;BME280;46911;32.650;-16.902;2023-05-15T01:16:48;102253.56;;;16.56;64.50
61026;BME280;46911;32.650;-16.902;2023-05-15T01:18:51;102245.88;;;16.50;64.80
61026;BME280;46911;32.650;-16.902;2023-05-15T01:23:45;102248.78;;;16.47;65.23
61026;BME280;46911;32.650;-16.902;2023-05-15T01:28:04;102227.44;;;16.31;65.31
61026;BME280;46911;32.650;-16.902;2023-05-15T01:30:33;102246.41;;;16.42;65.58
61026;BME280;46911;32.650;-16.902;2023-05-15T01:32:57;102248.34;;;16.40;65.52
61026;BME280;46911;32.650;-16.902;2023-05-15T01:37:15;102214.50;;;16.23;65.60
61026;BME280;46911;32.650;-16.902;2023-05-15T01:39:23;102227.84;;;16.24;65.47
61026;BME280;46911;32.650;-16.902;2023-05-15T01:41:40;102243.59;;;16.31;65.65
61026;BME280;46911;32.650;-16.902;2023-05-15T01:43:44;102246.41;;;16.29;65.79
61026;BME280;46911;32.650;-16.902;2023-05-15T01:45:49;102223.00;;;16.17;65.59
61026;BME280;46911;32.650;-16.902;2023-05-15T01:47:58;102240.66;;;16.21;65.55
61026;BME280;46911;32.650;-16.902;2023-05-15T01:50:02;102220.03;;;16.07;65.42
61026;BME280;46911;32.650;-16.902;2023-05-15T01:54:13;102215.44;;;16.09;64.75
61026;BME280;46911;32.650;-16.902;2023-05-15T01:56:17;102222.22;;;16.15;64.68
61026;BME280;46911;32.650;-16.902;2023-05-15T01:58:19;102219.75;;;16.12;64.48
61026;BME280;46911;32.650;-16.902;2023-05-15T02:00:23;102234.50;;;16.19;64.73
61026;BME280;46911;32.650;-16.902;2023-05-15T02:02:26;102229.34;;;16.29;64.27
61026;BME280;46911;32.650;-16.902;2023-05-15T02:04:32;102232.81;;;16.31;63.96
61026;BME280;46911;32.650;-16.902;2023-05-15T02:06:33;102205.97;;;16.16;64.04
61026;BME280;46911;32.650;-16.902;2023-05-15T02:08:38;102219.47;;;16.42;63.73
61026;BME280;46911;32.650;-16.902;2023-05-15T02:10:39;102224.97;;;16.40;63.32
61026;BME280;46911;32.650;-16.902;2023-05-15T02:12:41;102196.59;;;16.22;63.27
61026;BME280;46911;32.650;-16.902;2023-05-15T02:14:42;102215.59;;;16.33;63.26
61026;BME280;46911;32.650;-16.902;2023-05-15T02:16:49;102188.34;;;16.25;63.29
61026;BME280;46911;32.650;-16.902;2023-05-15T02:18:53;102185.84;;;16.22;63.28
61026;BME280;46911;32.650;-16.902;2023-05-15T02:20:54;102199.63;;;16.17;63.05
61026;BME280;46911;32.650;-16.902;2023-05-15T02:22:59;102210.22;;;16.33;62.48
61026;BME280;46911;32.650;-16.902;2023-05-15T02:25:04;102200.50;;;16.31;62.35
61026;BME280;46911;32.650;-16.902;2023-05-15T02:27:38;102205.03;;;16.30;62.14
61026;BME280;46911;32.650;-16.902;2023-05-15T02:32:05;102200.19;;;16.35;62.07
61026;BME280;46911;32.650;-16.902;2023-05-15T02:36:31;102175.28;;;16.19;61.76
61026;BME280;46911;32.650;-16.902;2023-05-15T02:38:53;102191.03;;;16.25;61.30
61026;BME280;46911;32.650;-16.902;2023-05-15T02:40:58;102173.78;;;16.15;60.92
61026;BME280;46911;32.650;-16.902;2023-05-15T02:43:00;102191.22;;;16.22;60.98
61026;BME280;46911;32.650;-16.902;2023-05-15T02:45:07;102169.34;;;16.14;61.60
61026;BME280;46911;32.650;-16.902;2023-05-15T02:47:11;102190.59;;;16.31;61.73
61026;BME280;46911;32.650;-16.902;2023-05-15T02:49:13;102180.25;;;16.25;61.77
61026;BME280;46911;32.650;-16.902;2023-05-15T02:51:17;102163.66;;;16.18;62.14
61026;BME280;46911;32.650;-16.902;2023-05-15T02:53:18;102180.59;;;16.33;62.00
61026;BME280;46911;32.650;-16.902;2023-05-15T02:55:21;102185.97;;;16.33;62.11
61026;BME280;46911;32.650;-16.902;2023-05-15T02:57:27;102169.69;;;16.22;62.34
61026;BME280;46911;32.650;-16.902;2023-05-15T02:59:31;102167.75;;;16.24;62.21
61026;BME280;46911;32.650;-16.902;2023-05-15T03:01:39;102163.22;;;16.24;62.13
61026;BME280;46911;32.650;-16.902;2023-05-15T03:03:42;102181.75;;;16.42;61.86
61026;BME280;46911;32.650;-16.902;2023-05-15T03:05:46;102180.59;;;16.46;62.48
61026;BME280;46911;32.650;-16.902;2023-05-15T03:07:47;102187.38;;;16.52;62.68
61026;BME280;46911;32.650;-16.902;2023-05-15T03:09:48;102182.41;;;16.46;63.03
61026;BME280;46911;32.650;-16.902;2023-05-15T03:11:53;102160.13;;;16.31;62.89
61026;BME280;46911;32.650;-16.902;2023-05-15T03:13:54;102170.03;;;16.30;62.78
61026;BME280;46911;32.650;-16.902;2023-05-15T03:15:55;102163.34;;;16.23;62.69
61026;BME280;46911;32.650;-16.902;2023-05-15T03:17:59;102163.00;;;16.15;62.91
61026;BME280;46911;32.650;-16.902;2023-05-15T03:20:02;102166.66;;;16.14;63.08
61026;BME280;46911;32.650;-16.902;2023-05-15T03:22:06;102176.34;;;16.16;63.37
61026;BME280;46911;32.650;-16.902;2023-05-15T03:24:10;102157.69;;;16.00;63.78
61026;BME280;46911;32.650;-16.902;2023-05-15T03:26:11;102180.63;;;16.06;63.98
61026;BME280;46911;32.650;-16.902;2023-05-15T03:28:12;102178.06;;;16.04;64.38
61026;BME280;46911;32.650;-16.902;2023-05-15T03:30:13;102175.47;;;16.03;64.88
61026;BME280;46911;32.650;-16.902;2023-05-15T03:32:14;102174.63;;;16.02;64.75
61026;BME280;46911;32.650;-16.902;2023-05-15T03:34:17;102167.72;;;15.98;64.95
61026;BME280;46911;32.650;-16.902;2023-05-15T03:36:21;102175.56;;;16.01;65.06
61026;BME280;46911;32.650;-16.902;2023-05-15T03:38:24;102175.69;;;16.00;64.87
61026;BME280;46911;32.650;-16.902;2023-05-15T03:40:28;102162.06;;;15.88;64.54
61026;BME280;46911;32.650;-16.902;2023-05-15T03:42:31;102162.06;;;15.88;64.42
61026;BME280;46911;32.650;-16.902;2023-05-15T03:44:32;102157.75;;;15.86;63.96
61026;BME280;46911;32.650;-16.902;2023-05-15T03:46:35;102153.16;;;15.88;63.56
61026;BME280;46911;32.650;-16.902;2023-05-15T03:48:42;102163.97;;;16.01;63.33
61026;BME280;46911;32.650;-16.902;2023-05-15T03:50:46;102142.28;;;15.89;62.94
61026;BME280;46911;32.650;-16.902;2023-05-15T03:52:50;102157.06;;;15.97;62.97
61026;BME280;46911;32.650;-16.902;2023-05-15T03:54:54;102139.47;;;15.91;62.72
61026;BME280;46911;32.650;-16.902;2023-05-15T03:56:55;102148.78;;;16.00;62.71
61026;BME280;46911;32.650;-16.902;2023-05-15T03:58:58;102143.16;;;16.03;62.84
61026;BME280;46911;32.650;-16.902;2023-05-15T04:00:59;102145.63;;;16.06;62.88
61026;BME280;46911;32.650;-16.902;2023-05-15T04:03:02;102123.44;;;15.89;62.88
61026;BME280;46911;32.650;-16.902;2023-05-15T04:05:04;102128.94;;;15.88;63.08
61026;BME280;46911;32.650;-16.902;2023-05-15T04:07:05;102145.19;;;15.99;63.01
61026;BME280;46911;32.650;-16.902;2023-05-15T04:09:08;102150.41;;;16.02;63.10
61026;BME280;46911;32.650;-16.902;2023-05-15T04:11:11;102137.13;;;15.99;63.09
61026;BME280;46911;32.650;-16.902;2023-05-15T04:13:15;102141.03;;;16.08;63.10
61026;BME280;46911;32.650;-16.902;2023-05-15T04:15:20;102141.03;;;16.08;63.46
61026;BME280;46911;32.650;-16.902;2023-05-15T04:17:23;102136.84;;;16.17;63.52
61026;BME280;46911;32.650;-16.902;2023-05-15T04:19:29;102135.25;;;16.14;63.41
61026;BME280;46911;32.650;-16.902;2023-05-15T04:21:30;102136.63;;;16.20;63.21
61026;BME280;46911;32.650;-16.902;2023-05-15T04:23:31;102108.28;;;16.01;63.47
61026;BME280;46911;32.650;-16.902;2023-05-15T04:25:36;102126.16;;;16.15;63.45
61026;BME280;46911;32.650;-16.902;2023-05-15T04:27:38;102130.19;;;16.22;63.43
61026;BME280;46911;32.650;-16.902;2023-05-15T04:29:46;102122.97;;;16.10;63.67
61026;BME280;46911;32.650;-16.902;2023-05-15T04:31:47;102115.53;;;16.01;64.25
61026;BME280;46911;32.650;-16.902;2023-05-15T04:33:48;102107.84;;;15.95;64.44
61026;BME280;46911;32.650;-16.902;2023-05-15T04:35:51;102099.13;;;15.91;64.66
61026;BME280;46911;32.650;-16.902;2023-05-15T04:37:58;102125.94;;;16.05;64.62
61026;BME280;46911;32.650;-16.902;2023-05-15T04:39:59;102116.78;;;15.95;64.76
61026;BME280;46911;32.650;-16.902;2023-05-15T04:42:03;102111.72;;;15.90;64.85
61026;BME280;46911;32.650;-16.902;2023-05-15T04:44:09;102106.13;;;15.81;64.96
61026;BME280;46911;32.650;-16.902;2023-05-15T04:46:12;102098.63;;;15.71;65.21
61026;BME280;46911;32.650;-16.902;2023-05-15T04:48:13;102124.16;;;15.79;65.27
61026;BME280;46911;32.650;-16.902;2023-05-15T04:50:14;102099.25;;;15.62;65.61
61026;BME280;46911;32.650;-16.902;2023-05-15T04:52:18;102090.53;;;15.59;65.58
61026;BME280;46911;32.650;-16.902;2023-05-15T04:54:19;102105.59;;;15.61;65.78
61026;BME280;46911;32.650;-16.902;2023-05-15T04:56:26;102087.94;;;15.57;66.17
61026;BME280;46911;32.650;-16.902;2023-05-15T04:58:27;102090.53;;;15.59;66.42
61026;BME280;46911;32.650;-16.902;2023-05-15T05:00:30;102114.84;;;15.70;66.20
61026;BME280;46911;32.650;-16.902;2023-05-15T05:02:31;102102.91;;;15.61;66.34
61026;BME280;46911;32.650;-16.902;2023-05-15T05:04:40;102121.13;;;15.70;66.20
61026;BME280;46911;32.650;-16.902;2023-05-15T05:06:45;102121.13;;;15.70;66.28
61026;BME280;46911;32.650;-16.902;2023-05-15T05:08:51;102090.75;;;15.55;66.55
61026;BME280;46911;32.650;-16.902;2023-05-15T05:10:55;102104.75;;;15.61;66.46
61026;BME280;46911;32.650;-16.902;2023-05-15T05:12:56;102098.47;;;15.60;66.33
61026;BME280;46911;32.650;-16.902;2023-05-15T05:14:57;102095.78;;;15.60;66.40
61026;BME280;46911;32.650;-16.902;2023-05-15T05:17:01;102118.78;;;15.79;66.19
61026;BME280;46911;32.650;-16.902;2023-05-15T05:19:05;102118.00;;;15.77;66.30
61026;BME280;46911;32.650;-16.902;2023-05-15T05:21:06;102114.00;;;15.69;66.11
61026;BME280;46911;32.650;-16.902;2023-05-15T05:23:10;102114.34;;;15.65;66.51
61026;BME280;46911;32.650;-16.902;2023-05-15T05:25:11;102105.38;;;15.51;66.68
61026;BME280;46911;32.650;-16.902;2023-05-15T05:27:12;102120.00;;;15.60;66.83
61026;BME280;46911;32.650;-16.902;2023-05-15T05:29:15;102125.38;;;15.60;66.94
61026;BME280;46911;32.650;-16.902;2023-05-15T05:31:19;102130.53;;;15.63;66.72
61026;BME280;46911;32.650;-16.902;2023-05-15T05:33:20;102127.78;;;15.65;66.92
61026;BME280;46911;32.650;-16.902;2023-05-15T05:35:21;102119.59;;;15.66;66.35
61026;BME280;46911;32.650;-16.902;2023-05-15T05:37:22;102129.94;;;15.72;66.41
61026;BME280;46911;32.650;-16.902;2023-05-15T05:39:23;102129.19;;;15.70;66.60
61026;BME280;46911;32.650;-16.902;2023-05-15T05:41:25;102113.22;;;15.54;66.83
61026;BME280;46911;32.650;-16.902;2023-05-15T05:43:30;102122.69;;;15.60;67.06
61026;BME280;46911;32.650;-16.902;2023-05-15T05:45:34;102115.78;;;15.56;67.29
61026;BME280;46911;32.650;-16.902;2023-05-15T05:47:35;102121.94;;;15.58;67.30
61026;BME280;46911;32.650;-16.902;2023-05-15T05:49:41;102114.63;;;15.60;67.52
61026;BME280;46911;32.650;-16.902;2023-05-15T05:51:44;102126.34;;;15.59;67.52
61026;BME280;46911;32.650;-16.902;2023-05-15T05:53:48;102102.97;;;15.47;67.50
61026;BME280;46911;32.650;-16.902;2023-05-15T05:55:51;102109.97;;;15.49;67.32
61026;BME280;46911;32.650;-16.902;2023-05-15T05:57:55;102128.06;;;15.60;67.20
61026;BME280;46911;32.650;-16.902;2023-05-15T05:59:56;102112.38;;;15.54;67.22
61026;BME280;46911;32.650;-16.902;2023-05-15T06:01:59;102137.03;;;15.61;67.29
61026;BME280;46911;32.650;-16.902;2023-05-15T06:04:03;102126.88;;;15.51;67.38
61026;BME280;46911;32.650;-16.902;2023-05-15T06:06:04;102132.16;;;15.53;67.54
61026;BME280;46911;32.650;-16.902;2023-05-15T06:08:07;102114.88;;;15.43;67.64
61026;BME280;46911;32.650;-16.902;2023-05-15T06:10:08;102134.06;;;15.51;67.52
61026;BME280;46911;32.650;-16.902;2023-05-15T06:12:17;102135.78;;;15.52;67.49
61026;BME280;46911;32.650;-16.902;2023-05-15T06:14:23;102136.00;;;15.49;67.62
61026;BME280;46911;32.650;-16.902;2023-05-15T06:16:24;102110.47;;;15.42;67.83
61026;BME280;46911;32.650;-16.902;2023-05-15T06:18:25;102115.09;;;15.39;67.58
61026;BME280;46911;32.650;-16.902;2023-05-15T06:20:28;102132.78;;;15.56;67.58
61026;BME280;46911;32.650;-16.902;2023-05-15T06:22:29;102120.06;;;15.46;67.54
61026;BME280;46911;32.650;-16.902;2023-05-15T06:24:33;102141.63;;;15.59;67.35
61026;BME280;46911;32.650;-16.902;2023-05-15T06:26:36;102138.81;;;15.60;67.40
61026;BME280;46911;32.650;-16.902;2023-05-15T06:28:39;102141.53;;;15.60;67.49
61026;BME280;46911;32.650;-16.902;2023-05-15T06:30:40;102126.66;;;15.54;67.55
61026;BME280;46911;32.650;-16.902;2023-05-15T06:32:41;102133.56;;;15.59;67.58
61026;BME280;46911;32.650;-16.902;2023-05-15T06:34:42;102127.50;;;15.55;67.91
61026;BME280;46911;32.650;-16.902;2023-05-15T06:36:43;102127.97;;;15.62;67.86
61026;BME280;46911;32.650;-16.902;2023-05-15T06:38:46;102147.50;;;15.78;67.75
61026;BME280;46911;32.650;-16.902;2023-05-15T06:40:52;102133.78;;;15.68;67.54
61026;BME280;46911;32.650;-16.902;2023-05-15T06:42:57;102136.19;;;15.73;67.52
61026;BME280;46911;32.650;-16.902;2023-05-15T06:45:04;102160.28;;;15.89;67.59
61026;BME280;46911;32.650;-16.902;2023-05-15T06:47:12;102142.78;;;15.82;67.42
61026;BME280;46911;32.650;-16.902;2023-05-15T06:49:15;102153.50;;;15.96;67.26
61026;BME280;46911;32.650;-16.902;2023-05-15T06:51:18;102137.00;;;15.88;66.90
61026;BME280;46911;32.650;-16.902;2023-05-15T06:53:19;102134.00;;;15.93;66.71
61026;BME280;46911;32.650;-16.902;2023-05-15T06:55:20;102150.94;;;16.08;66.34
61026;BME280;46911;32.650;-16.902;2023-05-15T06:57:21;102152.34;;;16.13;66.21
61026;BME280;46911;32.650;-16.902;2023-05-15T06:59:25;102157.75;;;16.26;65.88
61026;BME280;46911;32.650;-16.902;2023-05-15T07:01:26;102161.63;;;16.35;65.57
61026;BME280;46911;32.650;-16.902;2023-05-15T07:03:30;102156.78;;;16.40;65.42
61026;BME280;46911;32.650;-16.902;2023-05-15T07:05:36;102109.06;;;16.16;65.11
61026;BME280;46911;32.650;-16.902;2023-05-15T07:07:39;102136.88;;;16.43;65.03
61026;BME280;46911;32.650;-16.902;2023-05-15T07:09:40;102134.41;;;16.39;65.21
61026;BME280;46911;32.650;-16.902;2023-05-15T07:11:41;102134.81;;;16.46;65.41
61026;BME280;46911;32.650;-16.902;2023-05-15T07:13:42;102147.53;;;16.57;65.22
61026;BME280;46911;32.650;-16.902;2023-05-15T07:15:43;102139.88;;;16.51;65.08
61026;BME280;46911;32.650;-16.902;2023-05-15T07:17:44;102134.38;;;16.52;64.96
61026;BME280;46911;32.650;-16.902;2023-05-15T07:19:47;102146.75;;;16.55;64.93
61026;BME280;46911;32.650;-16.902;2023-05-15T07:21:51;102157.22;;;16.60;64.83
61026;BME280;46911;32.650;-16.902;2023-05-15T07:23:51;102149.88;;;16.62;64.70
61026;BME280;46911;32.650;-16.902;2023-05-15T07:25:53;102146.53;;;16.58;64.54
61026;BME280;46911;32.650;-16.902;2023-05-15T07:27:57;102173.59;;;16.69;64.65
61026;BME280;46911;32.650;-16.902;2023-05-15T07:29:58;102152.47;;;16.63;64.80
61026;BME280;46911;32.650;-16.902;2023-05-15T07:31:59;102174.97;;;16.75;64.80
61026;BME280;46911;32.650;-16.902;2023-05-15T07:34:00;102154.72;;;16.69;64.81
61026;BME280;46911;32.650;-16.902;2023-05-15T07:36:03;102166.25;;;16.84;64.45
61026;BME280;46911;32.650;-16.902;2023-05-15T07:38:07;102148.03;;;16.88;64.02
61026;BME280;46911;32.650;-16.902;2023-05-15T07:40:11;102157.63;;;17.05;63.30
61026;BME280;46911;32.650;-16.902;2023-05-15T07:42:12;102151.53;;;17.14;62.26
61026;BME280;46911;32.650;-16.902;2023-05-15T07:44:15;102152.84;;;17.21;61.90
61026;BME280;46911;32.650;-16.902;2023-05-15T07:46:16;102164.09;;;17.39;62.02
61026;BME280;46911;32.650;-16.902;2023-05-15T07:48:21;102154.06;;;17.42;61.54
61026;BME280;46911;32.650;-16.902;2023-05-15T07:50:27;102165.22;;;17.61;61.15
61026;BME280;46911;32.650;-16.902;2023-05-15T07:52:30;102152.88;;;17.57;60.68
61026;BME280;46911;32.650;-16.902;2023-05-15T07:54:34;102167.22;;;17.70;59.79
61026;BME280;46911;32.650;-16.902;2023-05-15T07:56:37;102163.22;;;17.63;60.15
61026;BME280;46911;32.650;-16.902;2023-05-15T07:58:40;102155.25;;;17.62;60.45
61026;BME280;46911;32.650;-16.902;2023-05-15T08:00:46;102164.28;;;17.73;60.01
61026;BME280;46911;32.650;-16.902;2023-05-15T08:02:47;102171.69;;;17.83;60.05
61026;BME280;46911;32.650;-16.902;2023-05-15T08:04:50;102164.53;;;17.95;59.97
61026;BME280;46911;32.650;-16.902;2023-05-15T08:06:51;102154.84;;;18.03;59.70
61026;BME280;46911;32.650;-16.902;2023-05-15T08:08:54;102170.25;;;18.26;59.18
61026;BME280;46911;32.650;-16.902;2023-05-15T08:10:55;102162.75;;;18.29;58.38
61026;BME280;46911;32.650;-16.902;2023-05-15T08:13:01;102163.75;;;18.39;57.80
61026;BME280;46911;32.650;-16.902;2023-05-15T08:15:02;102161.56;;;18.45;58.21
61026;BME280;46911;32.650;-16.902;2023-05-15T08:17:03;102139.09;;;18.44;57.94
61026;BME280;46911;32.650;-16.902;2023-05-15T08:19:04;102169.31;;;18.61;57.90
61026;BME280;46911;32.650;-16.902;2023-05-15T08:21:12;102151.75;;;18.55;57.65
61026;BME280;46911;32.650;-16.902;2023-05-15T08:23:13;102171.16;;;18.71;56.75
61026;BME280;46911;32.650;-16.902;2023-05-15T08:25:16;102175.84;;;18.69;56.13
61026;BME280;46911;32.650;-16.902;2023-05-15T08:27:17;102166.50;;;18.73;55.97
61026;BME280;46911;32.650;-16.902;2023-05-15T08:29:18;102167.38;;;18.85;56.39
61026;BME280;46911;32.650;-16.902;2023-05-15T08:31:22;102155.69;;;18.85;55.46
61026;BME280;46911;32.650;-16.902;2023-05-15T08:33:23;102163.84;;;18.96;55.53
61026;BME280;46911;32.650;-16.902;2023-05-15T08:35:29;102140.19;;;18.76;55.38
61026;BME280;46911;32.650;-16.902;2023-05-15T08:37:33;102161.09;;;18.85;55.88
61026;BME280;46911;32.650;-16.902;2023-05-15T08:39:36;102146.59;;;18.74;55.57
61026;BME280;46911;32.650;-16.902;2023-05-15T08:44:24;102166.41;;;18.98;55.25
61026;BME280;46911;32.650;-16.902;2023-05-15T08:46:25;102159.16;;;19.10;55.82
61026;BME280;46911;32.650;-16.902;2023-05-15T08:48:30;102170.78;;;19.44;55.71
61026;BME280;46911;32.650;-16.902;2023-05-15T08:50:38;102178.63;;;19.80;54.35
61026;BME280;46911;32.650;-16.902;2023-05-15T08:52:41;102152.69;;;20.10;54.03
61026;BME280;46911;32.650;-16.902;2023-05-15T08:54:57;102173.72;;;20.48;52.24
61026;BME280;46911;32.650;-16.902;2023-05-15T08:56:59;102160.00;;;20.40;52.13
61026;BME280;46911;32.650;-16.902;2023-05-15T08:59:00;102157.44;;;21.00;51.34
61026;BME280;46911;32.650;-16.902;2023-05-15T09:01:02;102167.31;;;21.62;49.48
61026;BME280;46911;32.650;-16.902;2023-05-15T09:03:03;102167.28;;;21.52;49.88
61026;BME280;46911;32.650;-16.902;2023-05-15T09:05:07;102158.94;;;21.24;50.09
61026;BME280;46911;32.650;-16.902;2023-05-15T09:07:10;102154.69;;;21.41;48.99
61026;BME280;46911;32.650;-16.902;2023-05-15T09:09:15;102165.41;;;21.52;49.09
61026;BME280;46911;32.650;-16.902;2023-05-15T09:11:20;102166.41;;;21.41;49.05
61026;BME280;46911;32.650;-16.902;2023-05-15T09:13:22;102147.88;;;22.05;47.57
61026;BME280;46911;32.650;-16.902;2023-05-15T09:15:26;102160.59;;;21.56;48.42
61026;BME280;46911;32.650;-16.902;2023-05-15T09:17:32;102171.59;;;21.94;48.45
61026;BME280;46911;32.650;-16.902;2023-05-15T09:19:33;102149.75;;;21.76;47.90
61026;BME280;46911;32.650;-16.902;2023-05-15T09:21:34;102161.47;;;21.96;47.56
61026;BME280;46911;32.650;-16.902;2023-05-15T09:23:35;102134.41;;;22.14;47.56
61026;BME280;46911;32.650;-16.902;2023-05-15T09:25:42;102161.31;;;22.17;47.59
61026;BME280;46911;32.650;-16.902;2023-05-15T09:27:47;102139.22;;;22.49;46.70
61026;BME280;46911;32.650;-16.902;2023-05-15T09:29:48;102143.97;;;22.37;46.98
61026;BME280;46911;32.650;-16.902;2023-05-15T09:31:56;102136.28;;;22.13;47.31
61026;BME280;46911;32.650;-16.902;2023-05-15T09:34:00;102154.72;;;22.19;47.90
61026;BME280;46911;32.650;-16.902;2023-05-15T09:36:07;102142.41;;;22.25;47.16
61026;BME280;46911;32.650;-16.902;2023-05-15T09:38:13;102161.53;;;22.43;47.08
61026;BME280;46911;32.650;-16.902;2023-05-15T09:40:18;102139.53;;;22.27;47.22
61026;BME280;46911;32.650;-16.902;2023-05-15T09:42:19;102159.72;;;22.24;48.18
61026;BME280;46911;32.650;-16.902;2023-05-15T09:44:25;102154.41;;;23.07;47.17
61026;BME280;46911;32.650;-16.902;2023-05-15T09:46:33;102147.75;;;23.84;44.90
61026;BME280;46911;32.650;-16.902;2023-05-15T09:48:39;102132.09;;;23.50;44.54
61026;BME280;46911;32.650;-16.902;2023-05-15T09:50:46;102134.28;;;23.64;45.05
61026;BME280;46911;32.650;-16.902;2023-05-15T09:52:52;102155.44;;;23.34;46.43
61026;BME280;46911;32.650;-16.902;2023-05-15T09:54:53;102150.13;;;23.33;46.16
61026;BME280;46911;32.650;-16.902;2023-05-15T09:57:06;102132.38;;;23.29;45.45
61026;BME280;46911;32.650;-16.902;2023-05-15T09:59:12;102147.91;;;24.00;44.78
61026;BME280;46911;32.650;-16.902;2023-05-15T10:01:21;102145.97;;;23.38;45.75
61026;BME280;46911;32.650;-16.902;2023-05-15T10:03:25;102128.34;;;23.33;46.23
61026;BME280;46911;32.650;-16.902;2023-05-15T10:05:27;102138.00;;;23.27;46.03
61026;BME280;46911;32.650;-16.902;2023-05-15T10:07:33;102146.34;;;22.88;46.51
61026;BME280;46911;32.650;-16.902;2023-05-15T10:09:35;102132.13;;;22.94;47.08
61026;BME280;46911;32.650;-16.902;2023-05-15T10:11:40;102136.06;;;23.37;46.02
61026;BME280;46911;32.650;-16.902;2023-05-15T10:13:45;102149.06;;;23.62;45.11
61026;BME280;46911;32.650;-16.902;2023-05-15T10:15:47;102145.88;;;23.02;47.00
61026;BME280;46911;32.650;-16.902;2023-05-15T10:17:51;102146.88;;;23.83;45.68
61026;BME280;46911;32.650;-16.902;2023-05-15T10:19:52;102143.38;;;23.09;46.28
61026;BME280;46911;32.650;-16.902;2023-05-15T10:21:56;102155.88;;;23.30;45.78
61026;BME280;46911;32.650;-16.902;2023-05-15T10:24:02;102138.38;;;23.50;45.26
61026;BME280;46911;32.650;-16.902;2023-05-15T10:26:23;102154.81;;;23.13;46.76
61026;BME280;46911;32.650;-16.902;2023-05-15T10:28:27;102150.69;;;23.36;45.65
61026;BME280;46911;32.650;-16.902;2023-05-15T10:30:33;102137.88;;;22.91;46.24
61026;BME280;46911;32.650;-16.902;2023-05-15T10:32:34;102143.16;;;23.02;46.51
61026;BME280;46911;32.650;-16.902;2023-05-15T10:34:36;102137.41;;;23.69;44.82
61026;BME280;46911;32.650;-16.902;2023-05-15T10:36:37;102153.84;;;23.14;46.37
61026;BME280;46911;32.650;-16.902;2023-05-15T10:38:40;102146.56;;;23.50;46.21
61026;BME280;46911;32.650;-16.902;2023-05-15T10:40:45;102132.50;;;23.55;44.93
61026;BME280;46911;32.650;-16.902;2023-05-15T10:42:46;102148.47;;;23.22;45.50
61026;BME280;46911;32.650;-16.902;2023-05-15T10:44:51;102153.72;;;23.05;46.12
61026;BME280;46911;32.650;-16.902;2023-05-15T10:46:59;102155.63;;;22.95;46.72
61026;BME280;46911;32.650;-16.902;2023-05-15T10:49:03;102155.97;;;23.20;45.95